createdAt,value
2018-09-11T00:01:43.522Z,20.00
2018-09-11T00:04:11.837Z,20.00
2018-09-11T00:06:40.066Z,19.90
2018-09-11T00:09:10.008Z,19.90
2018-09-11T00:11:38.213Z,19.90
2018-09-11T00:14:06.645Z,19.80
2018-09-11T00:16:34.846Z,19.80
2018-09-11T00:19:03.070Z,19.80
2018-09-11T00:21:31.270Z,19.80
2018-09-11T00:23:59.506Z,19.70
2018-09-11T00:26:27.761Z,19.70
2018-09-11T00:28:55.976Z,19.70
2018-09-11T00:31:24.270Z,19.70
2018-09-11T00:33:52.468Z,19.70
2018-09-11T00:36:20.678Z,19.70
2018-09-11T00:38:48.883Z,19.60
2018-09-11T00:41:17.098Z,19.60
2018-09-11T00:43:45.304Z,19.60
2018-09-11T00:46:13.514Z,19.60
2018-09-11T00:48:41.722Z,19.60
2018-09-11T00:51:09.923Z,19.60
2018-09-11T00:53:38.121Z,19.60
2018-09-11T00:56:06.637Z,19.60
2018-09-11T00:58:34.922Z,19.60
2018-09-11T01:01:03.130Z,19.50
2018-09-11T01:03:31.343Z,19.50
2018-09-11T01:05:59.520Z,19.50
2018-09-11T01:08:27.753Z,19.50
2018-09-11T01:10:55.996Z,19.50
2018-09-11T01:13:24.192Z,19.50
2018-09-11T01:15:52.393Z,19.50
2018-09-11T01:18:20.614Z,19.60
2018-09-11T01:20:48.809Z,19.60
2018-09-11T01:23:16.999Z,19.50
2018-09-11T01:25:45.182Z,19.60
2018-09-11T01:28:13.399Z,19.50
2018-09-11T01:30:41.599Z,19.50
2018-09-11T01:33:09.807Z,19.50
2018-09-11T01:35:38.014Z,19.60
2018-09-11T01:38:06.329Z,19.50
2018-09-11T01:40:34.514Z,19.60
2018-09-11T01:43:02.779Z,19.60
2018-09-11T01:45:30.965Z,19.50
2018-09-11T01:47:59.153Z,19.60
2018-09-11T01:50:27.321Z,19.60
2018-09-11T01:52:55.569Z,19.60
2018-09-11T01:55:23.782Z,19.60
2018-09-11T01:57:52.005Z,19.50
2018-09-11T02:00:21.325Z,19.50
2018-09-11T02:02:49.545Z,19.50
2018-09-11T02:05:17.970Z,19.50
2018-09-11T02:07:46.179Z,19.50
2018-09-11T02:10:14.391Z,19.40
2018-09-11T02:12:42.581Z,19.40
2018-09-11T02:15:11.484Z,19.40
2018-09-11T02:17:40.199Z,19.40
2018-09-11T02:20:08.500Z,19.40
2018-09-11T02:22:36.798Z,19.40
2018-09-11T02:25:05.513Z,19.40
2018-09-11T02:27:33.890Z,19.30
2018-09-11T02:30:02.142Z,19.30
2018-09-11T02:32:30.356Z,19.30
2018-09-11T02:34:58.589Z,19.20
2018-09-11T02:37:26.800Z,19.20
2018-09-11T02:39:55.001Z,19.20
2018-09-11T02:42:23.197Z,19.20
2018-09-11T02:44:51.431Z,19.10
2018-09-11T02:47:19.646Z,19.10
2018-09-11T02:49:47.924Z,19.10
2018-09-11T02:52:16.201Z,19.10
2018-09-11T02:54:44.618Z,19.10
2018-09-11T02:57:12.827Z,19.10
2018-09-11T02:59:41.010Z,19.10
2018-09-11T03:04:44.166Z,19.10
2018-09-11T03:07:12.398Z,19.10
2018-09-11T03:09:40.640Z,19.00
2018-09-11T03:12:08.845Z,19.00
2018-09-11T03:14:37.045Z,19.00
2018-09-11T03:17:05.282Z,19.00
2018-09-11T03:19:33.515Z,19.00
2018-09-11T03:22:01.682Z,18.90
2018-09-11T03:24:29.875Z,19.00
2018-09-11T03:26:58.081Z,19.00
2018-09-11T03:29:26.274Z,19.00
2018-09-11T03:31:54.491Z,19.00
2018-09-11T03:34:22.682Z,18.90
2018-09-11T03:36:50.981Z,18.90
2018-09-11T03:39:19.199Z,18.90
2018-09-11T03:41:47.394Z,18.90
2018-09-11T03:44:15.672Z,18.90
2018-09-11T03:46:43.841Z,18.80
2018-09-11T03:49:12.024Z,18.90
2018-09-11T03:51:40.223Z,18.80
2018-09-11T03:54:08.430Z,18.80
2018-09-11T03:56:36.723Z,18.70
2018-09-11T03:59:05.052Z,18.70
2018-09-11T04:01:33.250Z,18.70
2018-09-11T04:04:01.434Z,18.60
2018-09-11T04:06:29.658Z,18.60
2018-09-11T04:08:57.845Z,18.60
2018-09-11T04:11:26.063Z,18.60
2018-09-11T04:13:54.274Z,18.60
2018-09-11T04:16:22.450Z,18.50
2018-09-11T04:18:50.769Z,18.50
2018-09-11T04:21:18.978Z,18.50
2018-09-11T04:23:47.289Z,18.40
2018-09-11T04:26:15.464Z,18.40
2018-09-11T04:28:43.677Z,18.40
2018-09-11T04:31:11.906Z,18.40
2018-09-11T04:33:40.120Z,18.40
2018-09-11T04:36:08.303Z,18.40
2018-09-11T04:38:36.498Z,18.40
2018-09-11T04:41:04.791Z,18.30
2018-09-11T04:43:33.050Z,18.30
2018-09-11T04:46:01.379Z,18.40
2018-09-11T04:48:29.588Z,18.30
2018-09-11T04:50:57.808Z,18.30
2018-09-11T04:53:26.169Z,18.30
2018-09-11T04:55:54.411Z,18.30
2018-09-11T04:58:22.644Z,18.30
2018-09-11T05:00:50.935Z,18.30
2018-09-11T05:03:26.090Z,18.30
2018-09-11T05:05:54.669Z,18.30
2018-09-11T05:08:22.844Z,18.40
2018-09-11T05:10:51.730Z,18.40
2018-09-11T05:13:19.983Z,18.40
2018-09-11T05:15:48.239Z,18.50
2018-09-11T05:18:16.459Z,18.60
2018-09-11T05:20:44.658Z,18.60
2018-09-11T05:23:13.122Z,18.70
2018-09-11T05:25:41.330Z,18.70
2018-09-11T05:28:09.577Z,18.80
2018-09-11T05:30:38.279Z,18.80
2018-09-11T05:33:06.808Z,18.80
2018-09-11T05:35:35.001Z,18.90
2018-09-11T05:38:03.213Z,19.20
2018-09-11T05:40:31.479Z,19.40
2018-09-11T05:42:59.723Z,19.50
2018-09-11T05:45:27.911Z,19.60
2018-09-11T05:47:56.133Z,19.70
2018-09-11T05:50:24.374Z,19.70
2018-09-11T05:52:52.578Z,19.70
2018-09-11T05:55:20.811Z,19.70
2018-09-11T05:57:49.009Z,19.60
2018-09-11T06:00:17.219Z,19.50
2018-09-11T06:02:45.486Z,19.50
2018-09-11T06:05:13.717Z,19.40
2018-09-11T06:07:41.915Z,19.30
2018-09-11T06:10:10.140Z,19.20
2018-09-11T06:12:38.392Z,19.20
2018-09-11T06:15:06.598Z,19.10
2018-09-11T06:17:34.786Z,19.10
2018-09-11T06:20:03.002Z,19.10
2018-09-11T06:22:31.199Z,19.20
2018-09-11T06:24:59.460Z,19.20
2018-09-11T06:27:27.688Z,19.20
2018-09-11T06:29:55.905Z,19.20
2018-09-11T06:32:24.184Z,19.20
2018-09-11T06:34:52.401Z,19.20
2018-09-11T06:37:20.611Z,19.40
2018-09-11T06:39:48.810Z,19.50
2018-09-11T06:42:17.005Z,19.50
2018-09-11T06:44:45.259Z,19.50
2018-09-11T06:47:13.457Z,19.50
2018-09-11T06:49:41.641Z,19.50
2018-09-11T06:52:09.894Z,19.50
2018-09-11T06:54:38.123Z,19.50
2018-09-11T06:57:06.332Z,19.60
2018-09-11T06:59:34.578Z,19.60
2018-09-11T07:02:02.855Z,19.70
2018-09-11T07:04:31.033Z,19.70
2018-09-11T07:06:59.240Z,19.80
2018-09-11T07:09:27.420Z,19.80
2018-09-11T07:11:55.655Z,19.90
2018-09-11T07:14:23.846Z,20.00
2018-09-11T07:16:52.052Z,20.10
2018-09-11T07:19:20.277Z,20.30
2018-09-11T07:21:48.504Z,20.30
2018-09-11T07:24:16.702Z,20.50
2018-09-11T07:26:44.998Z,20.60
2018-09-11T07:29:13.338Z,20.60
2018-09-11T07:31:41.530Z,20.70
2018-09-11T07:34:09.824Z,20.60
2018-09-11T07:36:38.055Z,20.70
2018-09-11T07:39:08.163Z,20.80
2018-09-11T07:41:36.370Z,20.90
2018-09-11T07:44:04.541Z,20.90
2018-09-11T07:46:32.869Z,21.00
2018-09-11T07:49:01.148Z,21.10
2018-09-11T07:51:29.366Z,21.10
2018-09-11T07:53:57.633Z,21.20
2018-09-11T07:56:26.273Z,21.20
2018-09-11T07:58:54.483Z,21.10
2018-09-11T08:01:22.695Z,21.10
2018-09-11T08:03:51.113Z,21.10
2018-09-11T08:06:19.452Z,21.20
2018-09-11T08:08:47.698Z,21.20
2018-09-11T08:11:16.113Z,21.50
2018-09-11T08:13:44.453Z,22.60
2018-09-11T08:16:12.769Z,24.20
2018-09-11T08:18:40.986Z,25.40
2018-09-11T08:21:09.183Z,26.30
2018-09-11T08:23:37.379Z,26.60
2018-09-11T08:26:06.078Z,26.40
2018-09-11T08:28:34.529Z,26.00
2018-09-11T08:31:02.742Z,25.40
2018-09-11T08:33:30.937Z,24.90
2018-09-11T08:35:59.175Z,24.50
2018-09-11T08:38:27.421Z,24.20
2018-09-11T08:40:55.703Z,24.00
2018-09-11T08:43:23.842Z,23.80
2018-09-11T08:45:52.206Z,23.70
2018-09-11T08:48:20.499Z,23.60
2018-09-11T08:50:48.732Z,23.50
2018-09-11T08:53:16.942Z,23.50
2018-09-11T08:55:45.138Z,23.50
2018-09-11T08:58:13.366Z,23.50
2018-09-11T09:00:41.569Z,23.60
2018-09-11T09:03:10.039Z,23.60
2018-09-11T09:05:38.258Z,23.60
2018-09-11T09:08:06.563Z,23.70
2018-09-11T09:10:34.766Z,23.50
2018-09-11T09:13:02.978Z,23.60
2018-09-11T09:15:31.320Z,23.60
2018-09-11T09:17:59.546Z,23.60
2018-09-11T09:20:27.952Z,23.70
2018-09-11T09:22:56.334Z,23.60
2018-09-11T09:25:24.815Z,23.70
2018-09-11T09:27:55.043Z,23.80
2018-09-11T09:30:23.248Z,23.90
2018-09-11T09:32:51.471Z,24.10
2018-09-11T09:35:20.079Z,24.20
2018-09-11T09:37:48.394Z,24.20
2018-09-11T09:40:16.593Z,24.20
2018-09-11T09:42:44.827Z,24.30
2018-09-11T09:45:13.043Z,24.30
2018-09-11T09:47:41.286Z,24.40
2018-09-11T09:50:09.527Z,24.40
2018-09-11T09:52:38.044Z,24.40
2018-09-11T09:55:06.335Z,24.50
2018-09-11T09:57:34.576Z,24.50
2018-09-11T10:00:03.110Z,24.70
2018-09-11T10:02:31.329Z,24.80
2018-09-11T10:05:01.047Z,24.90
2018-09-11T10:07:29.286Z,24.90
2018-09-11T10:09:57.687Z,25.00
2018-09-11T10:12:25.947Z,25.10
2018-09-11T10:14:54.273Z,25.00
2018-09-11T10:17:22.549Z,25.00
2018-09-11T10:19:53.033Z,25.00
2018-09-11T10:22:21.233Z,25.10
2018-09-11T10:24:49.442Z,25.10
2018-09-11T10:27:18.184Z,25.20
2018-09-11T10:29:46.381Z,25.30
2018-09-11T10:32:15.008Z,25.40
2018-09-11T10:34:43.320Z,25.30
2018-09-11T10:37:11.581Z,25.30
2018-09-11T10:39:41.042Z,25.30
2018-09-11T10:42:09.300Z,25.30
2018-09-11T10:44:37.601Z,25.40
2018-09-11T10:47:05.896Z,25.50
2018-09-11T10:49:34.146Z,25.50
2018-09-11T10:52:02.379Z,25.60
2018-09-11T10:54:30.634Z,25.90
2018-09-11T10:56:59.107Z,26.10
2018-09-11T10:59:27.362Z,26.20
2018-09-11T11:01:55.808Z,26.30
2018-09-11T11:04:24.148Z,26.10
2018-09-11T11:06:52.369Z,26.10
2018-09-11T11:09:20.598Z,26.10
2018-09-11T11:11:48.862Z,26.20
2018-09-11T11:14:17.068Z,26.40
2018-09-11T11:16:45.707Z,26.50
2018-09-11T11:19:13.919Z,26.50
2018-09-11T11:21:42.148Z,26.60
2018-09-11T11:24:10.614Z,26.50
2018-09-11T11:26:38.868Z,26.30
2018-09-11T11:29:07.109Z,26.30
2018-09-11T11:31:35.370Z,26.30
2018-09-11T11:34:03.939Z,26.50
2018-09-11T11:36:32.236Z,26.70
2018-09-11T11:39:00.770Z,26.90
2018-09-11T11:41:29.134Z,27.00
2018-09-11T11:43:57.420Z,27.20
2018-09-11T11:46:25.837Z,27.10
2018-09-11T11:48:54.422Z,27.00
2018-09-11T11:51:22.824Z,26.80
2018-09-11T11:53:51.059Z,26.70
2018-09-11T11:56:19.338Z,26.70
2018-09-11T11:58:47.550Z,26.80
2018-09-11T12:01:15.786Z,26.80
2018-09-11T12:03:44.179Z,27.00
2018-09-11T12:06:12.517Z,27.00
2018-09-11T12:08:40.958Z,26.90
2018-09-11T12:11:09.159Z,26.80
2018-09-11T12:13:37.482Z,26.80
2018-09-11T12:16:05.938Z,27.00
2018-09-11T12:18:34.111Z,27.10
2018-09-11T12:21:02.367Z,27.10
2018-09-11T12:23:30.592Z,27.30
2018-09-11T12:25:58.797Z,27.40
2018-09-11T12:28:27.050Z,27.60
2018-09-11T12:30:55.504Z,27.50
2018-09-11T12:33:23.773Z,27.40
2018-09-11T12:35:52.002Z,27.30
2018-09-11T12:38:20.268Z,27.20
2018-09-11T12:40:48.548Z,27.10
2018-09-11T12:43:16.802Z,27.10
2018-09-11T12:45:45.651Z,27.20
2018-09-11T12:48:14.106Z,27.30
2018-09-11T12:50:42.185Z,27.40
2018-09-11T12:53:10.438Z,27.50
2018-09-11T12:55:38.639Z,27.60
2018-09-11T12:58:06.876Z,27.70
2018-09-11T13:00:35.094Z,27.80
2018-09-11T13:03:03.314Z,27.90
2018-09-11T13:05:31.547Z,28.00
2018-09-11T13:07:59.828Z,27.80
2018-09-11T13:10:28.066Z,27.80
2018-09-11T13:12:56.346Z,27.90
2018-09-11T13:15:24.550Z,28.00
2018-09-11T13:17:52.763Z,28.10
2018-09-11T13:20:21.170Z,28.10
2018-09-11T13:22:49.451Z,28.00
2018-09-11T13:25:17.720Z,28.00
2018-09-11T13:27:46.234Z,28.10
2018-09-11T13:30:14.482Z,28.00
2018-09-11T13:32:42.732Z,27.90
2018-09-11T13:35:10.936Z,27.90
2018-09-11T13:37:39.251Z,27.80
2018-09-11T13:40:07.477Z,27.80
2018-09-11T13:42:35.782Z,27.80
2018-09-11T13:45:03.981Z,27.80
2018-09-11T13:47:32.399Z,27.90
2018-09-11T13:50:00.623Z,28.00
2018-09-11T13:52:28.854Z,28.20
2018-09-11T13:54:57.089Z,28.20
2018-09-11T13:57:25.740Z,28.20
2018-09-11T13:59:53.984Z,28.30
2018-09-11T14:02:22.238Z,28.30
2018-09-11T14:04:50.464Z,28.40
2018-09-11T14:07:18.852Z,28.50
2018-09-11T14:09:47.135Z,28.50
2018-09-11T14:12:15.443Z,28.40
2018-09-11T14:14:43.749Z,28.20
2018-09-11T14:17:12.029Z,28.20
2018-09-11T14:19:40.291Z,28.10
2018-09-11T14:22:09.006Z,28.30
2018-09-11T14:24:37.230Z,28.40
2018-09-11T14:27:05.527Z,28.50
2018-09-11T14:29:33.839Z,28.60
2018-09-11T14:32:02.076Z,28.60
2018-09-11T14:34:30.789Z,28.60
2018-09-11T14:36:59.340Z,28.50
2018-09-11T14:39:27.546Z,28.60
2018-09-11T14:41:55.825Z,28.60
2018-09-11T14:44:24.097Z,28.50
2018-09-11T14:46:52.274Z,28.50
2018-09-11T14:49:20.468Z,28.50
2018-09-11T14:51:48.949Z,28.60
2018-09-11T14:54:17.176Z,28.60
2018-09-11T14:56:45.544Z,28.60
2018-09-11T14:59:13.798Z,28.70
2018-09-11T15:01:42.162Z,28.70
2018-09-11T15:04:10.789Z,28.50
2018-09-11T15:06:39.130Z,28.40
2018-09-11T15:09:08.683Z,28.50
2018-09-11T15:11:37.225Z,28.60
2018-09-11T15:14:05.471Z,28.60
2018-09-11T15:16:33.797Z,28.70
2018-09-11T15:19:02.041Z,28.60
2018-09-11T15:21:30.363Z,28.60
2018-09-11T15:23:58.619Z,28.50
2018-09-11T15:26:27.002Z,28.50
2018-09-11T15:28:55.302Z,28.70
2018-09-11T15:31:23.613Z,28.70
2018-09-11T15:33:52.174Z,28.80
2018-09-11T15:36:20.519Z,28.80
2018-09-11T15:38:48.785Z,28.60
2018-09-11T15:41:17.050Z,28.40
2018-09-11T15:43:45.312Z,28.30
2018-09-11T15:46:13.832Z,28.20
2018-09-11T15:48:42.112Z,28.20
2018-09-11T15:51:10.307Z,28.10
2018-09-11T15:53:38.584Z,28.10
2018-09-11T15:56:06.995Z,28.20
2018-09-11T15:58:35.214Z,28.20
2018-09-11T16:01:03.449Z,28.30
2018-09-11T16:03:31.851Z,28.30
2018-09-11T16:06:00.124Z,28.30
2018-09-11T16:08:28.381Z,28.30
2018-09-11T16:10:56.710Z,28.30
2018-09-11T16:13:25.025Z,28.40
2018-09-11T16:15:53.330Z,28.40
2018-09-11T16:18:21.657Z,28.30
2018-09-11T16:20:49.899Z,28.20
2018-09-11T16:23:18.136Z,28.10
2018-09-11T16:25:46.350Z,28.10
2018-09-11T16:28:14.618Z,28.00
2018-09-11T16:30:42.920Z,27.90
2018-09-11T16:33:11.166Z,27.90
2018-09-11T16:35:39.594Z,27.90
2018-09-11T16:38:07.868Z,27.80
2018-09-11T16:40:36.102Z,27.80
2018-09-11T16:43:04.443Z,27.80
2018-09-11T16:45:32.708Z,27.80
2018-09-11T16:48:01.091Z,27.80
2018-09-11T16:50:29.367Z,27.80
2018-09-11T16:52:57.626Z,27.80
2018-09-11T16:55:25.862Z,27.70
2018-09-11T16:57:54.226Z,27.70
2018-09-11T17:00:22.514Z,27.70
2018-09-11T17:02:50.770Z,27.60
2018-09-11T17:05:19.062Z,27.60
2018-09-11T17:07:47.646Z,27.50
2018-09-11T17:10:15.979Z,27.50
2018-09-11T17:12:44.832Z,27.50
2018-09-11T17:15:13.220Z,27.40
2018-09-11T17:17:41.464Z,27.30
2018-09-11T17:20:09.703Z,27.30
2018-09-11T17:22:37.882Z,27.30
2018-09-11T17:25:06.091Z,27.30
2018-09-11T17:27:34.338Z,27.20
2018-09-11T17:30:02.629Z,27.10
2018-09-11T17:32:30.838Z,27.10
2018-09-11T17:34:59.054Z,27.00
2018-09-11T17:37:27.290Z,26.90
2018-09-11T17:39:55.517Z,26.80
2018-09-11T17:42:23.783Z,26.80
2018-09-11T17:44:52.398Z,26.70
2018-09-11T17:47:20.881Z,26.70
2018-09-11T17:49:49.140Z,26.60
2018-09-11T17:52:17.634Z,26.60
2018-09-11T17:54:46.122Z,26.50
2018-09-11T17:57:14.700Z,26.40
2018-09-11T17:59:45.962Z,26.40
2018-09-11T18:02:14.319Z,26.30
2018-09-11T18:04:42.575Z,26.30
2018-09-11T18:07:11.576Z,26.20
2018-09-11T18:09:39.892Z,26.20
2018-09-11T18:12:08.686Z,26.10
2018-09-11T18:14:37.005Z,26.10
2018-09-11T18:17:05.380Z,26.10
2018-09-11T18:19:33.695Z,26.00
2018-09-11T18:22:01.948Z,26.00
2018-09-11T18:24:31.091Z,25.90
2018-09-11T18:27:00.247Z,25.90
2018-09-11T18:29:28.547Z,25.90
2018-09-11T18:31:56.946Z,25.90
2018-09-11T18:34:25.261Z,25.80
2018-09-11T18:36:53.799Z,25.80
2018-09-11T18:39:22.510Z,25.70
2018-09-11T18:41:50.807Z,25.70
2018-09-11T18:44:19.246Z,25.70
2018-09-11T18:46:48.147Z,25.70
2018-09-11T18:49:16.554Z,24.50
2018-09-11T18:51:44.944Z,25.60
2018-09-11T18:54:19.781Z,25.60
2018-09-11T18:56:48.099Z,25.50
2018-09-11T18:59:16.356Z,25.50
2018-09-11T19:01:44.913Z,25.40
2018-09-11T19:04:13.356Z,25.40
2018-09-11T19:06:41.753Z,25.30
2018-09-11T19:09:11.279Z,25.30
2018-09-11T19:11:39.556Z,25.20
2018-09-11T19:14:08.615Z,25.20
2018-09-11T19:16:37.778Z,25.10
2018-09-11T19:19:06.382Z,25.10
2018-09-11T19:21:34.791Z,25.00
2018-09-11T19:24:03.043Z,25.00
2018-09-11T19:26:31.307Z,24.90
2018-09-11T19:28:59.777Z,24.90
2018-09-11T19:31:28.232Z,24.90
2018-09-11T19:33:56.513Z,24.80
2018-09-11T19:36:25.045Z,24.80
2018-09-11T19:38:53.867Z,24.70
2018-09-11T19:41:23.050Z,24.70
2018-09-11T19:43:52.265Z,24.70
2018-09-11T19:46:20.553Z,24.70
2018-09-11T19:48:48.810Z,24.60
2018-09-11T19:51:17.075Z,24.60
2018-09-11T19:53:46.271Z,24.60
2018-09-11T19:56:14.690Z,24.50
2018-09-11T19:58:43.815Z,24.50
2018-09-11T20:01:12.169Z,24.50
2018-09-11T20:03:41.151Z,24.40
2018-09-11T20:06:09.878Z,24.40
2018-09-11T20:08:40.914Z,24.40
2018-09-11T20:11:10.112Z,24.40
2018-09-11T20:13:38.359Z,24.30
2018-09-11T20:16:06.633Z,24.30
2018-09-11T20:18:35.023Z,24.30
2018-09-11T20:21:03.229Z,24.30
2018-09-11T20:23:31.690Z,24.20
2018-09-11T20:25:59.935Z,24.20
2018-09-11T20:28:28.231Z,24.20
2018-09-11T20:30:56.481Z,24.10
2018-09-11T20:33:24.741Z,24.10
2018-09-11T20:35:53.018Z,24.10
2018-09-11T20:38:21.334Z,24.10
2018-09-11T20:40:49.611Z,24.10
2018-09-11T20:43:17.901Z,24.10
2018-09-11T20:45:46.228Z,24.00
2018-09-11T20:48:14.518Z,24.00
2018-09-11T20:50:42.954Z,23.90
2018-09-11T20:53:11.174Z,23.90
2018-09-11T20:55:39.376Z,23.90
2018-09-11T20:58:07.672Z,23.90
2018-09-11T21:00:35.914Z,23.90
2018-09-11T21:03:04.151Z,23.90
2018-09-11T21:05:32.447Z,23.90
2018-09-11T21:08:00.668Z,23.90
2018-09-11T21:10:28.940Z,23.90
2018-09-11T21:12:57.242Z,23.80
2018-09-11T21:15:25.441Z,23.80
2018-09-11T21:17:53.733Z,23.80
2018-09-11T21:20:22.026Z,23.80
2018-09-11T21:22:50.715Z,23.70
2018-09-11T21:25:18.963Z,23.70
2018-09-11T21:27:47.202Z,23.70
2018-09-11T21:30:15.497Z,23.70
2018-09-11T21:32:43.792Z,23.60
2018-09-11T21:35:12.068Z,23.60
2018-09-11T21:37:40.274Z,23.60
2018-09-11T21:40:08.518Z,23.60
2018-09-11T21:42:36.950Z,23.50
2018-09-11T21:45:05.417Z,23.60
2018-09-11T21:47:34.682Z,23.50
2018-09-11T21:50:02.985Z,23.50
2018-09-11T21:52:31.262Z,23.40
2018-09-11T21:54:59.479Z,23.40
2018-09-11T21:57:27.711Z,23.40
2018-09-11T21:59:55.978Z,23.40
2018-09-11T22:02:24.265Z,23.40
2018-09-11T22:04:52.509Z,23.30
2018-09-11T22:07:20.737Z,23.30
2018-09-11T22:09:48.987Z,23.30
2018-09-11T22:12:17.320Z,23.30
2018-09-11T22:14:45.541Z,23.30
2018-09-11T22:17:13.781Z,23.30
2018-09-11T22:19:42.046Z,23.20
2018-09-11T22:22:10.305Z,23.20
2018-09-11T22:24:38.567Z,23.10
2018-09-11T22:27:06.768Z,23.10
2018-09-11T22:29:35.012Z,23.10
2018-09-11T22:32:03.279Z,23.00
2018-09-11T22:34:31.541Z,23.00
2018-09-11T22:36:59.890Z,23.00
2018-09-11T22:39:28.147Z,23.00
2018-09-11T22:41:56.381Z,22.90
2018-09-11T22:44:24.597Z,22.90
2018-09-11T22:46:52.809Z,22.90
2018-09-11T22:49:21.018Z,22.90
2018-09-11T22:51:49.241Z,22.80
2018-09-11T22:54:17.447Z,22.80
2018-09-11T22:56:45.685Z,22.70
2018-09-11T22:59:13.905Z,22.70
2018-09-11T23:01:42.110Z,22.70
2018-09-11T23:04:10.323Z,22.60
2018-09-11T23:06:38.657Z,22.60
2018-09-11T23:09:08.562Z,22.60
2018-09-11T23:11:36.855Z,22.60
2018-09-11T23:14:05.070Z,22.50
2018-09-11T23:16:33.334Z,22.50
2018-09-11T23:19:01.558Z,22.50
2018-09-11T23:21:29.799Z,22.40
2018-09-11T23:23:58.029Z,22.40
2018-09-11T23:26:26.261Z,22.40
2018-09-11T23:28:54.515Z,22.40
2018-09-11T23:31:22.757Z,22.30
2018-09-11T23:33:51.044Z,22.30
2018-09-11T23:36:19.436Z,22.30
2018-09-11T23:38:47.822Z,22.30
2018-09-11T23:41:16.175Z,22.30
2018-09-11T23:43:45.152Z,22.30
2018-09-11T23:46:13.389Z,22.30
2018-09-11T23:48:41.674Z,22.30
2018-09-11T23:51:09.931Z,22.30
2018-09-11T23:53:38.162Z,22.30
2018-09-11T23:56:06.590Z,22.20
2018-09-11T23:58:34.826Z,22.20
